Timeline UpdatesTrip UpdatesNews PostsPvt PostsTravel TipsAdmin PostsConv PostsFollowed PostsChat RequestsBlog PostsPNR Posts

Disclaimer
Search
 
 
Wed Sep 3, 2014 12:36:44 ISTHomeTrainsΣChainsAtlasPNRForumGalleryNewsFAQTripsMembersLoginFeedback
No Recent News for this Train
Other Trains in the News **new
Latest...
.
Tue Jan 22, 2013 (09:18AM)
⇐ Return Journey: Train# 51422

51421/Pune-Nizamabad Passenger (UnReserved)

OLD Time-Table. Click here to UPDATE TT
Jan 16 2014 (7:29PM)
Change Departure Station:
Change Arrival Station:
Post a Train Travel TipPost a Train Travel Tip **new
Post a Comment/Question/Picture/VideoPost a Comment/Question/Picture/Video
Pantry/Catering
✕ NO Pantry Car
✓ Catering Avbl
Loco/Rake Reversals
DD/Daund Junction (7);
RSA - Rake Sharing
51451-Pune-Daund Shuttle,51433-Nizamabad Pandharpur Passenger,51434-Pandharpur Nizamabad Passenger,51422-Nizamabad Pune Passenger
Rake/Coach Composition
SLR, UR, UR, UR, UR, UR, UR, UR, SLR,
Loco
PUNE WDM/G-3A / WDM-3D
News    PNR    Forum    Time-Table    Availability    Fare Chart    Map    Arr/Dep History    Trips    Gallery    ΣChains    X/O    Timeline    
Travel Time: 0h 53m    2 halts    Distance: 23 km    Avg Speed: 26 km/hr
Type: Passenger
Zone: CR/Central
Departs @ 09:27
Platform# 1
SMTWTFS
Fakrabad/FKB 
Arrives @ 10:20
Platform# ???
SMTWTFS
Nizamabad/NZB 

2 halts. 2 intermediate Stations between Fakrabad and Nizamabad

Show ALL intermediate Stations  Show Old Time-Table

#CodeStation NameX/OArrivesAvgDepartsAvgHaltPFDay#KmSpeedElevZoneAddress
1PUNEPune Junction (6)  -14:25-51-751.166556mCRPune 411001, Maharashtra
2GPRWGhorpuri West (2)  14:27-14:28-1m--1-748.927552mCRPune 411001, Maharashtra
3HDPHadapsar (3)  14:36-14:37-1m11-745.349554mCRPune 411028, Maharashtra
4MJBKManjari Budruk (2)X  14:43-14:44-1m21-740.448550mCRPune 412307, Maharashtra
5LONILoni (2)  14:51-14:52-1m21-734.762541mCRPune 412201, Maharashtra
6URIUruli (2)X  15:04-15:05-1m21-722.458553mCRDist. Pune 412202, Maharashtra
7YTYevat (2)  15:18-15:19-1m21-709.775558mCRDist. Pune 412214, Maharashtra
8KTTKhutbav (2)X  15:24-15:25-1m21-703.564558mCRShirur-Daund Rd Daund, Maharashtra
9KDGKedgaon (2)X  15:31-15:32-1m21-697.151544mCRDist. Pune 412203, Maharashtra
10KDTNKadethan  15:38-15:39-1m21-692.036532mCRDaund, Maharashtra
11PAAPatas (3)  15:47-15:48-1m21-687.232532mCRDist. Pune 412219, Maharashtra
12DDDaund Junction (7)16:10-16:25-15m31-675.655521mCRNew Daund Dist. Pune 413801, Maharashtra
13KSTHKashti (2)X  16:39-16:40-1m11-662.726540mCRDaund, Maharashtra
14SGNDShrigonda Road (2)  16:59-17:00-1m11-654.445547mCRAhmadnagar, Maharashtra
15BWDBelwandi (2)X  17:19-17:20-1m11-640.268592mCRAhmadnagar, Maharashtra
16VPRVisapur (2)  17:32-17:33-1m11-626.541186mCRAhmadnagar, Maharashtra
17RNJDRanjangaon Road (1)  17:42-17:43-1m11-620.442656mCRDist. Pune, Maharashtra
18SRLSarola (2)  17:58-17:59-1m11-609.9430mCRAhmadnagar, Maharashtra
19AKRAkolner (1)  18:07-18:08-1m11-604.240689mCRAhmadnagar, Maharashtra
20ANGAhmadnagar (2)X  18:27-18:30-3m11-591.349650mCRAhmednagar 414001, Maharashtra
21NNBNimblak (1)X  18:39-18:40-1m11-584.057656mCRAhmednagar, Maharashtra
22VLVilad (1)  18:49-18:50-1m11-575.549598mCRAhmadnagar, Maharashtra
23VBRVambori (1)  19:04-19:05-1m11-564.066547mCRAhmadnagar, Maharashtra
24RRIRahuri (2)  19:17-19:18-1m--1-550.762519mCRAhmadnagar, Maharashtra
25TKMYTaklimiya (1)  19:23-19:24-1m11-545.568511mCRVambori, Maharashtra
26PDGNPadhegaon (1)  19:32-19:33-1m11-536.551512mCRBelapur, Maharashtra
27NPWNipani Vadgaon (2)  19:40-19:41-1m--1-530.521531mCRChitali, Maharashtra
28BAPBelapur (2)O  19:59-20:00-1m11-524.346541mCRShrirampur, Maharashtra
29CITChitali (1)20:15-20:16-1m11-512.859531mCRAhmadnagar, Maharashtra
30PBPuntamba Junction (2)O  20:25-20:26-1m11-504.059501mCRPuntamba, Maharashtra
31KNGNKanhegaon (2)  20:35-20:36-1m--1-495.151498mCRAhmadnagar, Maharashtra
32SNVRSanvatsarX  20:45-20:46-1m--1-487.417521mCRNagpur-Aurngabad-Mumbai Hwy, Maharashtra
33KPGKopargaon (2)21:14-21:15-1m11-479.758508mCRKopargaon 423601, Maharashtra
34YLYeola (2)X  21:29-21:30-1m--1-466.023553mCRYeola, Maharashtra
35MMRManmad Junction (6)  22:45-22:50-5m51-437.552580mCRManmad 423104, Maharashtra
36ANKAnkai (3)  23:14-23:15-1m11-422.666620mSCRDist. Nashik, Maharashtra
37NSLNagarsol (2)  23:24-23:25-1m--1-412.637589mSCRDist. Nashik, Maharashtra
38TRTarur  23:35-23:36-1m--1-406.4131586mSCRTaru, Maharashtra
39RGORotegaon  23:46-23:47-1m--1-384.682547mSCRAurangabad, Maharashtra
40PSDParsoda  23:56-23:57-1m--1-372.370530mSCRRotegaon, Maharashtra
41KAJGKaranjgaonX  00:01-00:02-1m--2-367.651523mSCRLasur, Maharashtra
42LSRLasur (2)  00:14-00:15-1m--2-357.579536mSCRAurangabad, Maharashtra
43POZPotul (1)  00:24-00:25-1m12-345.762554mSCRLasur, Maharashtra
44DLBDaulatabad (1)  00:34-00:35-1m12-336.450575mSCRDaulatabad, Maharashtra
45AWBAurangabad (5)X  00:50-00:55-5m--2-323.943561mSCRAurangabad 431001, Maharashtra
46MKDDMukundwadi Halt (1)X  01:09-01:10-1m12-314.0-580mSCRAurangabad, Maharashtra
47CTHChikalthan  01:14-01:15-1m--2-299.717582mSCRAurangabad, Maharashtra
48KMVKarmadX  01:29-01:30-1m--2-295.766567mSCRAurangabad, Maharashtra
49BDUBadnapur  01:44-01:45-1m--2-280.388523mSCRJalna, Maharashtra
50JJalna (3)  01:58-02:00-2m--2-261.365502mSCRJalna, Maharashtra
51SVDSarwariX  02:09-02:10-1m--2-251.666493mSCRRanjani, Maharashtra
52KODIKodi  02:19-02:20-1m--2-241.675473mSCRRanjani, Maharashtra
53RNERanjani  02:29-02:30-1m--2-230.442469mSCRJalna, Maharashtra
54PDGParadgaonX  02:39-02:40-1m--2-224.148454mSCRUsmanpur, Maharashtra
55PTUPartur (2)X  02:49-02:50-1m--2-216.963465mSCRJalna, Maharashtra
56UPRUsmanpur  02:59-03:00-1m--2-207.453444mSCRUsmanpur, Maharashtra
57SCOSatuna  03:09-03:10-1m--2-199.568440mSCRSatona, Maharashtra
58SELUSelu (2)  03:19-03:20-1m--2-189.364436mSCRParbhani, Maharashtra
59DGPPDhengli PimpalgaonX  03:29-03:30-1m--2-179.836407mSCRSatuna, Maharashtra
60MVOManwath Road (2)X  03:39-03:40-1m--2-174.362421mSCRParbhani, Maharashtra
61DAVDevalgaon Avchar  03:49-03:50-1m--2-165.140425mSCRParbhani, Maharashtra
62PGPergaonX  03:59-04:00-1m--2-159.026441mSCRParbhani, Maharashtra
63PBNParbhani Junction (3)  04:28-04:30-2m12-146.973414mSCRParbhani 431401, Maharashtra
64PIZPingli (1)X  04:39-04:40-1m12-135.936399mSCRParbhani, Maharashtra
65MQLMirkhalX  04:49-04:50-1m--2-130.621405mSCRPurna, Maharashtra
66PAUPurna Junction (4)X  05:25-05:30-5m--2-118.542384mSCRPurna, Maharashtra
67CRUChudawa (1)X  05:44-05:45-1m12-108.664392mSCRHingoli, Maharashtra
68LBGLimbgaon (2)  05:54-05:55-1m--2-99.070390mSCRHuzur Sahib Nanded, Maharashtra
69WNGWanegaonX  05:59-06:00-1m--2-94.311371mSCRChudawa, Maharashtra
70NEDHazur Sahib Nanded (4)X  06:35-06:40-5m22-87.942366mSCRNanded, Maharashtra
71MTDIMaltekdi  06:44-06:45-1m--2-85.148362mSCRNanded, Maharashtra
72PARDPathrad  06:54-06:55-1m--2-78.022363mSCRHuzur Sahib Nanded, Maharashtra
73MGCMugatX  07:04-07:05-1m--2-74.710360mSCRHuzur Sahib Nanded, Maharashtra
74MUEMudkhed Junction (4)X  07:58-08:00-2m--2-65.554378mSCRMudkhed, Maharashtra
75SVNSivungaon  08:08-08:09-1m--2-58.353395mSCRHuzur Sahib Nanded, Maharashtra
76SLGHShelgaon Halt  08:14-08:15-1m--2-53.847378mSCRMudkhed, Maharashtra
77UMRIUmri (1)  08:25-08:26-1m12-46.056381mSCRHuzur Sahib Nanded, Maharashtra
78BLSABolsa  08:35-08:36-1m--2-37.649361mSCRDharmabad, Maharashtra
79KEKKarkheli  08:45-08:46-1m--2-30.373358mSCRBiloli, Maharashtra
80SQESamarala Halt  08:52-08:53-1m--2-23.048360mSCRDharmabad, Maharashtra
81DABDharmabad (2)  09:01-09:02-1m--2-16.637354mSCRDegaon, Maharashtra
82BSXBasar (2)  09:18-09:20-2m12-6.767358mSCRDist Adilabad, Telangana
83FKB»Fakrabad (1)»  09:26-09:27-1m120.047348mSCRNizamabad Dist., Telangana
84NVTNavipet (2)  09:36-09:37-1m--27.070374mSCRNizamabad Dist., Telangana
85JKMJankampet Junction (1)  09:45-09:46-1m1216.411391mSCRJankampet Junction nizamabad dist., Telangana
86NZB•Nizamabad (3)•  10:20----222.7-384mSCRNizamabad, Telangana
Scroll to Top
Scroll to Bottom